| time (UTC) | temp F | wind direction | speed MPH | gust MPH | rain 1hr in | rain 24hr in | rain mn in | humidity % | barometer mb |
| 20260906051820 | 70 | 0.0 | 0.0 | 0.00 | 0.01 | 0.00 | 98 | 1013.6 | |
| 20260906050901 | 70 | 0.0 | 0.0 | 0.00 | 0.01 | 0.00 | 98 | 1013.7 | |
| 20260906045820 | 70 | 0.0 | 0.0 | 0.00 | 0.01 | 0.00 | 98 | 1013.8 | |
| 20260906044841 | 70 | 0.0 | 0.0 | 0.00 | 0.01 | 0.00 | 98 | 1013.8 | |
| 20260906043820 | 70 | 0.0 | 0.0 | 0.00 | 0.01 | 0.00 | 98 | 1013.9 | |
| 20260906042820 | 70 | 0.0 | 0.0 | 0.00 | 0.01 | 0.00 | 97 | 1013.9 | |
| 20260906041821 | 70 | 0.0 | 0.0 | 0.00 | 0.01 | 0.00 | 97 | 1014.0 | |
| 20260906040820 | 70 | 0.0 | 0.0 | 0.00 | 0.01 | 0.00 | 97 | 1014.0 | |
| 20260906035821 | 70 | 0.0 | 0.0 | 0.00 | 0.01 | 0.01 | 97 | 1014.1 | |
| 20260906034821 | 70 | 0.0 | 0.0 | 0.00 | 0.01 | 0.01 | 97 | 1014.1 | |
| 20260906033821 | 70 | 0.0 | 0.0 | 0.00 | 0.01 | 0.01 | 97 | 1014.2 | |
| 20260906032821 | 71 | 0.0 | 0.0 | 0.00 | 0.01 | 0.01 | 97 | 1014.2 | |
| 20260906031820 | 71 | 0.0 | 0.0 | 0.00 | 0.01 | 0.01 | 97 | 1014.3 | |
| 20260906030821 | 71 | 0.0 | 0.0 | 0.00 | 0.01 | 0.01 | 96 | 1014.3 | |
| 20260906025821 | 71 | 0.0 | 0.0 | 0.00 | 0.01 | 0.01 | 96 | 1014.2 | |
| 20260906024821 | 71 | 0.0 | 0.0 | 0.00 | 0.01 | 0.01 | 96 | 1014.3 | |
| 20260906023821 | 71 | 0.0 | 0.0 | 0.00 | 0.01 | 0.01 | 96 | 1014.1 | |
| 20260906022820 | 71 | 0.0 | 0.0 | 0.00 | 0.01 | 0.01 | 95 | 1013.9 | |
| 20260906021821 | 71 | 0.0 | 0.0 | 0.00 | 0.01 | 0.01 | 95 | 1013.8 | |
| 20260906020821 | 71 | 0.0 | 0.0 | 0.00 | 0.01 | 0.01 | 95 | 1013.5 | |
| 20260906015820 | 71 | 0.0 | 0.0 | 0.00 | 0.01 | 0.01 | 95 | 1013.6 | |
| 20260906014821 | 71 | 0.0 | 0.0 | 0.00 | 0.01 | 0.01 | 94 | 1013.4 | |
| 20260906013821 | 71 | 0.0 | 0.0 | 0.00 | 0.01 | 0.01 | 94 | 1013.5 | |
| 20260906012821 | 72 | 0.0 | 0.0 | 0.00 | 0.01 | 0.01 | 94 | 1013.5 | |
| 20260906011821 | 72 | 0.0 | 0.0 | 0.00 | 0.01 | 0.01 | 93 | 1013.4 | |
| 20260906010821 | 72 | 0.0 | 0.0 | 0.00 | 0.01 | 0.01 | 93 | 1013.3 | |
| 20260906005821 | 72 | 0.0 | 0.0 | 0.00 | 0.01 | 0.01 | 92 | 1013.3 | |
| 20260906004821 | 73 | 0.0 | 0.0 | 0.00 | 0.01 | 0.01 | 92 | 1013.2 | |
| 20260906003821 | 73 | 0.0 | 0.0 | 0.00 | 0.01 | 0.01 | 91 | 1013.3 | |
| 20260906002821 | 74 | 0.0 | 0.0 | 0.00 | 0.01 | 0.01 | 89 | 1013.2 | |
| 20260906001841 | 74 | 0.0 | 0.0 | 0.00 | 0.01 | 0.01 | 88 | 1013.2 | |
| 20260906000821 | 75 | 0.0 | 0.0 | 0.00 | 0.01 | 0.01 | 86 | 1013.1 | |
| 20260905235821 | 76 | 0.0 | 0.0 | 0.00 | 0.01 | 0.01 | 85 | 1013.0 | |
| 20260905234841 | 77 | 0.0 | 0.0 | 0.00 | 0.01 | 0.01 | 82 | 1012.9 | |
| 20260905233821 | 78 | 0.0 | 0.0 | 0.00 | 0.01 | 0.01 | 80 | 1012.8 | |
| 20260905232821 | 79 | 0.0 | 0.0 | 0.00 | 0.01 | 0.01 | 78 | 1012.7 | |
| 20260905231841 | 80 | 0.0 | 0.0 | 0.00 | 0.01 | 0.01 | 75 | 1012.4 | |
| 20260905230821 | 81 | 338 | 1.0 | 1.0 | 0.00 | 0.01 | 0.01 | 73 | 1012.4 |
| 20260905225821 | 82 | 158 | 1.0 | 2.0 | 0.00 | 0.01 | 0.01 | 70 | 1012.5 |
| 20260905224821 | 83 | 347 | 2.0 | 3.0 | 0.00 | 0.01 | 0.01 | 69 | 1012.4 |
| 20260905223821 | 83 | 0.0 | 2.0 | 0.00 | 0.01 | 0.01 | 69 | 1012.5 | |
| 20260905222821 | 83 | 167 | 2.0 | 2.0 | 0.00 | 0.01 | 0.01 | 67 | 1012.3 |
| 20260905221821 | 83 | 288 | 2.0 | 2.0 | 0.00 | 0.01 | 0.01 | 68 | 1012.4 |
| 20260905220841 | 82 | 123 | 3.0 | 3.0 | 0.00 | 0.01 | 0.01 | 72 | 1012.5 |
| 20260905215821 | 82 | 148 | 3.0 | 3.0 | 0.00 | 0.01 | 0.01 | 70 | 1012.5 |
| 20260905214821 | 80 | 54 | 2.0 | 2.0 | 0.00 | 0.01 | 0.01 | 75 | 1012.6 |
| 20260905213821 | 80 | 183 | 2.0 | 2.0 | 0.00 | 0.01 | 0.01 | 73 | 1012.8 |
| 20260905212901 | 80 | 206 | 3.0 | 3.0 | 0.00 | 0.01 | 0.01 | 72 | 1012.7 |
| 20260905211821 | 78 | 160 | 4.0 | 6.0 | 0.00 | 0.01 | 0.01 | 75 | 1012.9 |
| 20260905210821 | 77 | 134 | 2.0 | 3.0 | 0.00 | 0.01 | 0.01 | 83 | 1013.1 |
| 20260905205821 | 76 | 112 | 3.0 | 4.0 | 0.00 | 0.01 | 0.01 | 85 | 1013.3 |
| 20260905204821 | 74 | 113 | 2.0 | 4.0 | 0.00 | 0.01 | 0.01 | 87 | 1013.4 |
| 20260905203821 | 74 | 101 | 1.0 | 1.0 | 0.00 | 0.01 | 0.01 | 88 | 1013.6 |
| 20260905202821 | 73 | 0.0 | 0.0 | 0.00 | 0.01 | 0.01 | 87 | 1013.5 | |
| 20260905201821 | 74 | 71 | 1.0 | 2.0 | 0.00 | 0.01 | 0.01 | 87 | 1013.7 |
| 20260905200821 | 74 | 53 | 1.0 | 2.0 | 0.00 | 0.01 | 0.01 | 86 | 1013.5 |
| 20260905195841 | 74 | 9 | 1.0 | 2.0 | 0.01 | 0.01 | 0.01 | 85 | 1013.2 |
| 20260905194821 | 74 | 14 | 1.0 | 2.0 | 0.01 | 0.01 | 0.01 | 83 | 1013.1 |
| 20260905193821 | 74 | 144 | 2.0 | 3.0 | 0.01 | 0.01 | 0.01 | 82 | 1013.7 |
| 20260905192821 | 75 | 151 | 3.0 | 4.0 | 0.01 | 0.01 | 0.01 | 86 | 1014.0 |
| 20260905191821 | 76 | 50 | 2.0 | 3.0 | 0.01 | 0.01 | 0.01 | 82 | 1012.9 |
| 20260905190841 | 80 | 116 | 5.0 | 7.0 | 0.01 | 0.01 | 0.01 | 73 | 1013.1 |
| 20260905185821 | 88 | 185 | 5.0 | 8.0 | 0.00 | 0.00 | 0.00 | 60 | 1013.3 |
| 20260905184821 | 94 | 262 | 5.0 | 6.0 | 0.00 | 0.00 | 0.00 | 49 | 1013.1 |
| 20260905183821 | 96 | 320 | 3.0 | 5.0 | 0.00 | 0.00 | 0.00 | 47 | 1013.0 |
| 20260905182821 | 97 | 175 | 5.0 | 6.0 | 0.00 | 0.00 | 0.00 | 44 | 1012.7 |
| 20260905181821 | 98 | 310 | 3.0 | 4.0 | 0.00 | 0.00 | 0.00 | 43 | 1013.1 |
| 20260905180821 | 99 | 223 | 2.0 | 3.0 | 0.00 | 0.00 | 0.00 | 44 | 1013.2 |
| 20260905175921 | 98 | 306 | 2.0 | 3.0 | 0.00 | 0.00 | 0.00 | 46 | 1013.5 |
| 20260905174821 | 98 | 146 | 3.0 | 4.0 | 0.00 | 0.00 | 0.00 | 48 | 1013.8 |
| 20260905173841 | 96 | 98 | 2.0 | 2.0 | 0.00 | 0.00 | 0.00 | 48 | 1013.9 |
| 20260905172821 | 98 | 122 | 2.0 | 3.0 | 0.00 | 0.00 | 0.00 | 45 | 1014.1 |
| 20260905171821 | 96 | 44 | 2.0 | 3.0 | 0.00 | 0.00 | 0.00 | 47 | 1014.3 |
| 20260905170822 | 98 | 197 | 2.0 | 4.0 | 0.00 | 0.00 | 0.00 | 47 | 1014.4 |
| 20260905165902 | 99 | 21 | 3.0 | 4.0 | 0.00 | 0.00 | 0.00 | 44 | 1014.5 |
| 20260905164821 | 98 | 163 | 4.0 | 5.0 | 0.00 | 0.00 | 0.00 | 47 | 1014.7 |
| 20260905163821 | 98 | 182 | 2.0 | 3.0 | 0.00 | 0.00 | 0.00 | 45 | 1014.8 |
| 20260905162821 | 98 | 83 | 3.0 | 4.0 | 0.00 | 0.00 | 0.00 | 50 | 1014.9 |
| 20260905161822 | 97 | 282 | 3.0 | 3.0 | 0.00 | 0.00 | 0.00 | 51 | 1014.9 |
| 20260905160901 | 98 | 92 | 4.0 | 5.0 | 0.00 | 0.00 | 0.00 | 52 | 1015.1 |
| 20260905155821 | 97 | 59 | 1.0 | 3.0 | 0.00 | 0.00 | 0.00 | 52 | 1015.2 |
| 20260905154821 | 96 | 301 | 2.0 | 3.0 | 0.00 | 0.00 | 0.00 | 53 | 1015.2 |
| 20260905153821 | 95 | 7 | 3.0 | 3.0 | 0.00 | 0.00 | 0.00 | 58 | 1015.2 |
| 20260905152822 | 94 | 89 | 2.0 | 2.0 | 0.00 | 0.00 | 0.00 | 56 | 1015.2 |
| 20260905151821 | 94 | 93 | 2.0 | 3.0 | 0.00 | 0.00 | 0.00 | 58 | 1015.2 |
| 20260905150841 | 93 | 74 | 2.0 | 3.0 | 0.00 | 0.00 | 0.00 | 60 | 1015.2 |
| 20260905145821 | 92 | 234 | 3.0 | 3.0 | 0.00 | 0.00 | 0.00 | 62 | 1015.3 |
| 20260905144821 | 91 | 87 | 2.0 | 3.0 | 0.00 | 0.00 | 0.00 | 64 | 1015.4 |
| 20260905143822 | 90 | 215 | 4.0 | 5.0 | 0.00 | 0.00 | 0.00 | 65 | 1015.3 |
| 20260905142821 | 90 | 231 | 3.0 | 3.0 | 0.00 | 0.00 | 0.00 | 68 | 1015.3 |
| 20260905141821 | 89 | 70 | 1.0 | 2.0 | 0.00 | 0.00 | 0.00 | 69 | 1015.2 |
| 20260905140821 | 88 | 88 | 3.0 | 3.0 | 0.00 | 0.00 | 0.00 | 70 | 1015.3 |
| 20260905135821 | 87 | 91 | 3.0 | 4.0 | 0.00 | 0.00 | 0.00 | 72 | 1015.4 |
| 20260905134822 | 86 | 109 | 2.0 | 3.0 | 0.00 | 0.00 | 0.00 | 73 | 1015.4 |
| 20260905134002 | 85 | 84 | 1.0 | 3.0 | 0.00 | 0.00 | 0.00 | 75 | 1015.4 |
| 20260905132821 | 84 | 117 | 3.0 | 4.0 | 0.00 | 0.00 | 0.00 | 76 | 1015.6 |
| 20260905131822 | 83 | 79 | 1.0 | 2.0 | 0.00 | 0.00 | 0.00 | 78 | 1015.7 |
| 20260905130822 | 83 | 74 | 2.0 | 3.0 | 0.00 | 0.00 | 0.00 | 79 | 1015.6 |
| 20260905125822 | 82 | 109 | 1.0 | 3.0 | 0.00 | 0.00 | 0.00 | 81 | 1015.7 |
| 20260905124821 | 80 | 92 | 1.0 | 1.0 | 0.00 | 0.00 | 0.00 | 84 | 1015.7 |
| 20260905123821 | 79 | 0.0 | 0.0 | 0.00 | 0.00 | 0.00 | 88 | 1015.7 | |
| 20260905122842 | 76 | 0.0 | 0.0 | 0.00 | 0.00 | 0.00 | 95 | 1015.7 | |
| 20260905121822 | 74 | 0.0 | 0.0 | 0.00 | 0.00 | 0.00 | 97 | 1015.7 | |
| 20260905120822 | 73 | 0.0 | 0.0 | 0.00 | 0.00 | 0.00 | 96 | 1015.6 | |
| 20260905115842 | 73 | 0.0 | 0.0 | 0.00 | 0.00 | 0.00 | 97 | 1015.5 | |
| 20260905114841 | 72 | 0.0 | 0.0 | 0.00 | 0.00 | 0.00 | 97 | 1015.5 | |
| 20260905113822 | 72 | 0.0 | 0.0 | 0.00 | 0.00 | 0.00 | 96 | 1015.4 | |
| 20260905112821 | 72 | 0.0 | 0.0 | 0.00 | 0.00 | 0.00 | 96 | 1015.3 | |
| 20260905111822 | 72 | 0.0 | 0.0 | 0.00 | 0.00 | 0.00 | 96 | 1015.1 | |
| 20260905110842 | 72 | 0.0 | 0.0 | 0.00 | 0.00 | 0.00 | 95 | 1014.9 | |
| 20260905105822 | 72 | 0.0 | 0.0 | 0.00 | 0.00 | 0.00 | 96 | 1014.6 | |
| 20260905104821 | 72 | 0.0 | 0.0 | 0.00 | 0.00 | 0.00 | 95 | 1014.3 | |
| 20260905103821 | 72 | 0.0 | 0.0 | 0.00 | 0.00 | 0.00 | 95 | 1014.3 | |
| 20260905102822 | 72 | 0.0 | 0.0 | 0.00 | 0.00 | 0.00 | 94 | 1014.3 | |
| 20260905101842 | 73 | 0.0 | 0.0 | 0.00 | 0.00 | 0.00 | 94 | 1014.2 | |
| 20260905100822 | 73 | 0.0 | 0.0 | 0.00 | 0.00 | 0.00 | 94 | 1014.2 | |
| 20260905095824 | 73 | 0.0 | 0.0 | 0.00 | 0.00 | 0.00 | 93 | 1014.1 | |
| 20260905094821 | 73 | 0.0 | 0.0 | 0.00 | 0.00 | 0.00 | 93 | 1014.2 | |
| 20260905093902 | 73 | 0.0 | 0.0 | 0.00 | 0.00 | 0.00 | 92 | 1014.2 | |
| 20260905092822 | 74 | 0.0 | 0.0 | 0.00 | 0.00 | 0.00 | 92 | 1014.2 | |
| 20260905091842 | 74 | 0.0 | 0.0 | 0.00 | 0.00 | 0.00 | 91 | 1014.1 | |
| 20260905090822 | 74 | 0.0 | 0.0 | 0.00 | 0.00 | 0.00 | 91 | 1014.2 | |
| 20260905085821 | 75 | 0.0 | 0.0 | 0.00 | 0.00 | 0.00 | 90 | 1014.2 | |
| 20260905084844 | 74 | 85 | 2.0 | 2.0 | 0.00 | 0.00 | 0.00 | 91 | 1014.3 |
| 20260905083822 | 74 | 109 | 0.0 | 1.0 | 0.00 | 0.00 | 0.00 | 92 | 1014.4 |
| 20260905082822 | 74 | 73 | 1.0 | 2.0 | 0.00 | 0.00 | 0.00 | 92 | 1014.4 |
| 20260905081822 | 74 | 0.0 | 0.0 | 0.00 | 0.00 | 0.00 | 92 | 1014.6 | |
| 20260905080822 | 74 | 0.0 | 0.0 | 0.00 | 0.00 | 0.00 | 92 | 1014.6 | |
| 20260905075842 | 74 | 0.0 | 0.0 | 0.00 | 0.00 | 0.00 | 93 | 1014.6 | |
| 20260905074822 | 74 | 0.0 | 1.0 | 0.00 | 0.00 | 0.00 | 93 | 1014.9 | |
| 20260905073822 | 74 | 0.0 | 0.0 | 0.00 | 0.00 | 0.00 | 93 | 1014.9 | |
| 20260905072822 | 74 | 0.0 | 0.0 | 0.00 | 0.00 | 0.00 | 93 | 1014.9 | |
| 20260905071822 | 74 | 0.0 | 0.0 | 0.00 | 0.00 | 0.00 | 92 | 1015.0 | |
| 20260905070821 | 74 | 0.0 | 0.0 | 0.00 | 0.00 | 0.00 | 92 | 1015.1 | |
| 20260905065842 | 74 | 0.0 | 0.0 | 0.00 | 0.00 | 0.00 | 91 | 1015.2 | |
| 20260905064822 | 75 | 0.0 | 0.0 | 0.00 | 0.00 | 0.00 | 91 | 1015.4 | |
| 20260905063842 | 75 | 0.0 | 0.0 | 0.00 | 0.00 | 0.00 | 91 | 1015.5 | |
| 20260905062822 | 75 | 0.0 | 0.0 | 0.00 | 0.00 | 0.00 | 91 | 1015.6 | |
| 20260905061822 | 75 | 0.0 | 0.0 | 0.00 | 0.00 | 0.00 | 90 | 1015.6 | |
| 20260905060822 | 75 | 0.0 | 0.0 | 0.00 | 0.00 | 0.00 | 90 | 1015.8 | |
| 20260905055842 | 75 | 0.0 | 0.0 | 0.00 | 0.00 | 0.00 | 90 | 1015.9 | |
| 20260905054822 | 76 | 0.0 | 0.0 | 0.00 | 0.00 | 0.00 | 89 | 1016.0 | |
| 20260905053822 | 76 | 0.0 | 0.0 | 0.00 | 0.00 | 0.00 | 88 | 1016.0 | |
| 20260905052822 | 76 | 0.0 | 0.0 | 0.00 | 0.00 | 0.00 | 87 | 1016.1 |